Terminal Aerodrome Forecast
Issued by NWS North Platte, NE

Home | Current Version | Previous Version | Graphics & Text | Print | Product List | Glossary On
Versions: 1 2 3 4 5 6 7 8 9 10 11 12 13 14
000
FTUS43 KLBF 011556 AAA
TAFVTN
TAF AMD
KVTN 011556Z 0116/0212 01014G20KT P6SM SCT150
     FM012200 01012KT P6SM SCT250
     FM020000 VRB05KT P6SM SKC=

USA.gov is the U.S. government's official web portal to all federal, state and local government web resources and services.